Time;durP1;ratioP1;P1;durP2;ratioP2;P2;SDS_P1;SDS_P2;PMS_P1;PMS_P2;Temp;Humidity;BMP_temperature;BMP_pressure;BME280_temperature;BME280_humidity;BME280_pressure;Samples;Min_cycle;Max_cycle;Signal;HPM_P1;HPM_P2
2022/10/15 00:00:49;;;;;;;22.08;12.02;;;;;;;;;;5054598;28;20140;-86
2022/10/15 00:03:35;;;;;;;27.98;12.02;;;;;;;;;;5055074;28;20439;-86
2022/10/15 00:06:20;;;;;;;25.63;12.80;;;;;;;;;;5053785;28;20558;-86
2022/10/15 00:09:05;;;;;;;24.00;11.40;;;;;;;;;;5053393;28;20040;-85
2022/10/15 00:11:49;;;;;;;23.23;11.52;;;;;;;;;;5053232;28;20488;-86
2022/10/15 00:14:37;;;;;;;21.00;11.63;;;;;;;;;;5063598;28;20035;-85
2022/10/15 00:17:21;;;;;;;27.70;12.50;;;;;;;;;;5071898;28;20040;-84
2022/10/15 00:20:07;;;;;;;23.15;11.05;;;;;;;;;;5064301;28;20036;-85
2022/10/15 00:22:52;;;;;;;23.25;11.60;;;;;;;;;;5061098;28;20036;-86
2022/10/15 00:25:36;;;;;;;28.23;13.07;;;;;;;;;;5046288;28;20046;-85
2022/10/15 00:28:21;;;;;;;19.33;10.70;;;;;;;;;;5073444;28;20044;-86
2022/10/15 00:31:08;;;;;;;27.13;12.02;;;;;;;;;;5063486;28;20044;-85
2022/10/15 00:33:53;;;;;;;20.67;11.68;;;;;;;;;;5085184;28;20149;-87
2022/10/15 00:36:38;;;;;;;26.50;11.15;;;;;;;;;;5073306;28;20043;-85
2022/10/15 00:39:22;;;;;;;23.55;11.65;;;;;;;;;;5073353;28;20439;-85
2022/10/15 00:42:07;;;;;;;25.25;11.65;;;;;;;;;;5072730;28;20051;-85
2022/10/15 00:44:56;;;;;;;20.85;11.18;;;;;;;;;;5073024;28;20079;-87
2022/10/15 00:47:44;;;;;;;26.88;11.95;;;11.90;99.90;;;;;;5067501;28;20527;-86
2022/10/15 00:50:29;;;;;;;20.30;11.82;;;;;;;;;;5068454;28;20116;-85
2022/10/15 00:53:13;;;;;;;23.27;12.35;;;;;;;;;;5058495;28;20044;-85
2022/10/15 00:55:58;;;;;;;21.30;11.73;;;;;;;;;;5058187;28;20129;-85
2022/10/15 00:58:43;;;;;;;24.83;12.45;;;;;;;;;;5073872;28;20063;-86
2022/10/15 01:01:28;;;;;;;21.45;11.45;;;;;;;;;;5058876;28;20043;-85
2022/10/15 01:04:14;;;;;;;28.08;11.80;;;;;;;;;;5073096;28;20503;-86
2022/10/15 01:06:58;;;;;;;21.60;11.20;;;;;;;;;;5072223;28;20034;-86
2022/10/15 01:09:43;;;;;;;28.77;12.63;;;;;;;;;;5058682;28;20453;-86
2022/10/15 01:12:30;;;;;;;25.13;12.60;;;;;;;;;;5072911;28;20043;-85
2022/10/15 01:15:18;;;;;;;25.05;11.75;;;;;;;;;;5049801;28;20105;-85
2022/10/15 01:18:08;;;;;;;23.15;11.45;;;;;;;;;;5071846;28;20035;-86
2022/10/15 01:21:16;;;;;;;21.20;11.75;;;;;;;;;;5073581;28;20393;-86
2022/10/15 01:24:29;;;;;;;20.15;11.23;;;12.00;99.90;;;;;;5051729;28;20048;-86
2022/10/15 01:27:24;;;;;;;26.48;11.55;;;;;;;;;;5048798;28;20444;-85
2022/10/15 01:30:21;;;;;;;21.48;11.90;;;;;;;;;;5071761;28;20655;-85
2022/10/15 01:33:27;;;;;;;26.88;12.48;;;12.00;99.90;;;;;;5071574;28;20040;-85
2022/10/15 01:36:17;;;;;;;28.33;12.57;;;;;;;;;;5072693;28;20089;-85
2022/10/15 01:39:30;;;;;;;25.35;12.13;;;12.00;99.90;;;;;;5046883;28;20058;-85
2022/10/15 01:42:41;;;;;;;28.77;11.93;;;;;;;;;;5072387;28;20051;-85
2022/10/15 01:45:42;;;;;;;24.63;12.75;;;12.00;99.90;;;;;;5072655;28;20077;-85
2022/10/15 01:48:28;;;;;;;23.20;12.40;;;;;;;;;;5071757;28;20063;-85
2022/10/15 01:51:15;;;;;;;23.85;11.98;;;;;;;;;;5071373;28;20083;-84
2022/10/15 01:54:00;;;;;;;21.77;11.90;;;;;;;;;;5072565;28;20051;-85
2022/10/15 01:56:50;;;;;;;22.05;12.63;;;12.10;99.90;;;;;;5071838;28;20043;-85
2022/10/15 01:59:35;;;;;;;24.70;12.07;;;;;;;;;;5057825;28;20048;-85
2022/10/15 02:02:19;;;;;;;32.20;13.73;;;;;;;;;;5072008;28;20090;-85
2022/10/15 02:05:05;;;;;;;24.67;12.32;;;;;;;;;;5071380;28;20409;-88
2022/10/15 02:08:15;;;;;;;27.13;13.25;;;12.10;99.90;;;;;;5071871;28;20047;-84
2022/10/15 02:11:13;;;;;;;25.15;13.00;;;12.00;99.90;;;;;;5071982;28;20119;-85
2022/10/15 02:14:07;;;;;;;25.67;12.65;;;12.00;99.90;;;;;;5072302;28;20123;-85
2022/10/15 02:16:56;;;;;;;25.25;11.90;;;;;;;;;;5071508;28;20169;-85
2022/10/15 02:19:43;;;;;;;24.02;12.88;;;;;;;;;;5071229;28;20028;-86
2022/10/15 02:22:33;;;;;;;24.33;12.27;;;;;;;;;;5061030;28;20040;-86
2022/10/15 02:25:22;;;;;;;26.33;12.52;;;;;;;;;;5071662;28;20499;-85
2022/10/15 02:28:08;;;;;;;24.67;11.65;;;;;;;;;;5071727;28;20059;-86
2022/10/15 02:30:54;;;;;;;27.77;12.88;;;;;;;;;;5071368;28;20082;-85
2022/10/15 02:33:39;;;;;;;20.20;10.98;;;;;;;;;;5071131;28;20062;-86
2022/10/15 02:36:24;;;;;;;24.33;11.90;;;;;;;;;;5071782;28;20039;-86
2022/10/15 02:39:14;;;;;;;24.17;12.10;;;;;;;;;;5047846;28;20036;-89
2022/10/15 02:41:59;;;;;;;26.10;12.40;;;;;;;;;;5072016;28;20036;-86
2022/10/15 02:44:44;;;;;;;23.92;12.07;;;;;;;;;;5071276;28;20062;-86
2022/10/15 02:47:32;;;;;;;25.75;12.18;;;;;;;;;;5070671;28;20067;-86
2022/10/15 02:50:16;;;;;;;23.98;11.10;;;;;;;;;;5071465;28;20078;-86
2022/10/15 02:53:01;;;;;;;22.98;11.52;;;;;;;;;;5071101;28;20090;-86
2022/10/15 02:55:46;;;;;;;25.33;11.43;;;;;;;;;;5072314;28;20133;-86
2022/10/15 02:58:30;;;;;;;22.10;11.65;;;;;;;;;;5070519;28;20040;-86
2022/10/15 03:01:15;;;;;;;24.88;12.25;;;;;;;;;;5047456;28;20043;-86
2022/10/15 03:04:00;;;;;;;25.35;13.35;;;;;;;;;;5070806;28;20055;-86
2022/10/15 03:06:45;;;;;;;21.95;11.88;;;;;;;;;;5070925;28;20058;-86
2022/10/15 03:09:29;;;;;;;21.58;10.88;;;;;;;;;;5070265;28;20036;-86
2022/10/15 03:12:14;;;;;;;24.55;11.65;;;;;;;;;;5071277;28;20043;-88
2022/10/15 03:14:58;;;;;;;22.10;11.90;;;;;;;;;;5062955;28;20047;-86
2022/10/15 03:17:43;;;;;;;23.80;10.30;;;;;;;;;;5070751;28;20071;-86
2022/10/15 03:20:27;;;;;;;22.98;11.55;;;;;;;;;;5070359;28;20031;-85
2022/10/15 03:23:11;;;;;;;22.73;11.95;;;;;;;;;;5059337;28;20098;-85
2022/10/15 03:25:56;;;;;;;21.90;11.50;;;;;;;;;;5074788;28;20454;-86
2022/10/15 03:28:40;;;;;;;22.35;11.15;;;;;;;;;;5074453;28;20150;-87
2022/10/15 03:31:25;;;;;;;21.50;10.90;;;;;;;;;;5059906;28;20051;-86
2022/10/15 03:34:10;;;;;;;18.88;10.73;;;;;;;;;;5075645;28;20086;-86
2022/10/15 03:36:54;;;;;;;22.15;10.40;;;;;;;;;;5075412;28;20086;-86
2022/10/15 03:39:39;;;;;;;18.83;10.93;;;;;;;;;;5074971;28;20036;-86
2022/10/15 03:42:23;;;;;;;21.80;9.85;;;;;;;;;;5073888;28;20047;-86
2022/10/15 03:45:08;;;;;;;22.23;10.15;;;;;;;;;;5074085;28;20048;-86
2022/10/15 03:47:53;;;;;;;20.38;10.98;;;;;;;;;;5060389;28;20503;-85
2022/10/15 03:50:37;;;;;;;19.90;10.38;;;;;;;;;;5060530;28;20605;-86
2022/10/15 03:53:22;;;;;;;21.80;10.48;;;;;;;;;;5060782;28;20076;-85
2022/10/15 03:56:07;;;;;;;24.83;10.77;;;;;;;;;;5049526;28;20423;-85
2022/10/15 03:58:52;;;;;;;24.90;11.15;;;;;;;;;;5059802;28;20047;-86
2022/10/15 04:01:36;;;;;;;20.27;10.57;;;;;;;;;;5073604;28;20036;-86
2022/10/15 04:04:21;;;;;;;21.70;10.60;;;;;;;;;;5073294;28;20043;-88
2022/10/15 04:07:05;;;;;;;22.27;11.02;;;;;;;;;;5073885;28;20039;-88
2022/10/15 04:09:50;;;;;;;25.58;11.27;;;;;;;;;;5051257;28;20066;-86
2022/10/15 04:12:34;;;;;;;24.50;11.65;;;;;;;;;;5073238;28;20040;-86
2022/10/15 04:15:19;;;;;;;27.48;11.63;;;;;;;;;;5074956;28;20090;-86
2022/10/15 04:18:03;;;;;;;25.63;10.75;;;;;;;;;;5074006;28;20094;-86
2022/10/15 04:20:49;;;;;;;23.13;11.50;;;;;;;;;;5045632;28;20040;-86
2022/10/15 04:23:34;;;;;;;24.60;12.18;;;;;;;;;;5060042;28;20079;-86
2022/10/15 04:26:18;;;;;;;26.00;12.48;;;;;;;;;;5073573;28;20234;-86
2022/10/15 04:29:03;;;;;;;26.02;12.50;;;;;;;;;;5073540;28;20178;-86
2022/10/15 04:31:48;;;;;;;25.50;12.82;;;;;;;;;;5072974;28;20036;-85
2022/10/15 04:34:33;;;;;;;22.88;11.32;;;;;;;;;;5072470;28;20545;-86
2022/10/15 04:37:17;;;;;;;23.80;12.10;;;;;;;;;;5047940;28;20090;-87
2022/10/15 04:40:03;;;;;;;25.38;11.68;;;;;;;;;;5073146;28;20071;-86
2022/10/15 04:42:48;;;;;;;25.88;12.40;;;;;;;;;;5072744;28;20039;-86
2022/10/15 04:45:32;;;;;;;26.10;13.90;;;;;;;;;;5072484;28;20043;-85
2022/10/15 04:48:17;;;;;;;24.95;12.95;;;;;;;;;;5073460;28;20118;-86
2022/10/15 04:51:05;;;;;;;27.35;12.90;;;;;;;;;;5073295;28;20036;-86
2022/10/15 04:53:50;;;;;;;23.48;12.23;;;;;;;;;;5072270;28;20393;-86
2022/10/15 04:56:35;;;;;;;22.83;11.93;;;;;;;;;;5073746;28;20094;-85
2022/10/15 04:59:19;;;;;;;28.55;13.68;;;;;;;;;;5060064;28;20098;-86
2022/10/15 05:02:04;;;;;;;25.08;12.43;;;;;;;;;;5072703;28;20516;-86
2022/10/15 05:04:48;;;;;;;25.77;12.25;;;;;;;;;;5072294;28;20781;-85
2022/10/15 05:07:33;;;;;;;32.13;13.75;;;;;;;;;;5072086;28;20085;-85
2022/10/15 05:10:17;;;;;;;26.98;12.38;;;;;;;;;;5073927;28;20051;-85
2022/10/15 05:13:02;;;;;;;27.02;13.18;;;;;;;;;;5047708;28;20500;-85
2022/10/15 05:15:47;;;;;;;29.40;13.07;;;;;;;;;;5072108;28;20090;-85
2022/10/15 05:18:32;;;;;;;27.92;13.15;;;;;;;;;;5073129;28;20032;-88
2022/10/15 05:21:16;;;;;;;25.85;13.50;;;;;;;;;;5072479;28;20446;-86
2022/10/15 05:24:02;;;;;;;35.60;14.75;;;;;;;;;;5062903;28;20503;-86
2022/10/15 05:26:47;;;;;;;30.85;13.57;;;;;;;;;;5071830;28;20036;-86
2022/10/15 05:29:32;;;;;;;28.00;14.20;;;;;;;;;;5072152;28;20151;-89
2022/10/15 05:32:17;;;;;;;35.33;15.27;;;;;;;;;;5058443;28;20043;-86
2022/10/15 05:35:02;;;;;;;28.73;14.60;;;;;;;;;;5073114;28;20051;-85
2022/10/15 05:37:46;;;;;;;33.97;15.73;;;;;;;;;;5072665;28;20086;-86
2022/10/15 05:40:30;;;;;;;31.13;13.60;;;;;;;;;;5072055;28;20047;-86
2022/10/15 05:43:15;;;;;;;27.38;14.02;;;;;;;;;;5058250;28;20090;-86
2022/10/15 05:46:00;;;;;;;31.73;13.93;;;;;;;;;;5048952;28;20401;-86
2022/10/15 05:48:51;;;;;;;31.00;13.80;;;;;;;;;;5072035;28;20106;-87
2022/10/15 05:51:37;;;;;;;33.05;15.02;;;;;;;;;;5057399;28;20499;-89
2022/10/15 05:54:21;;;;;;;33.85;14.52;;;;;;;;;;5071827;28;20451;-86
2022/10/15 05:57:06;;;;;;;30.80;13.65;;;;;;;;;;5055741;28;20047;-84
2022/10/15 05:59:50;;;;;;;27.63;13.30;;;;;;;;;;5062338;28;20068;-91
2022/10/15 06:02:35;;;;;;;32.92;14.85;;;;;;;;;;5057186;28;20039;-91
2022/10/15 06:05:20;;;;;;;31.73;14.35;;;;;;;;;;5045118;28;20079;-87
2022/10/15 06:08:04;;;;;;;35.90;14.38;;;;;;;;;;5045427;28;20120;-88
2022/10/15 06:10:49;;;;;;;30.42;13.90;;;;;;;;;;5041125;28;20059;-89
2022/10/15 06:13:33;;;;;;;30.13;14.40;;;;;;;;;;5045226;28;20547;-86
2022/10/15 06:16:18;;;;;;;28.85;14.25;;;;;;;;;;5044939;28;20094;-87
2022/10/15 06:19:03;;;;;;;29.00;15.18;;;;;;;;;;5043687;28;20208;-90
2022/10/15 06:21:48;;;;;;;38.95;14.20;;;;;;;;;;5057627;28;20044;-86
2022/10/15 06:24:33;;;;;;;31.00;15.20;;;;;;;;;;5058474;28;20051;-87
2022/10/15 06:27:17;;;;;;;30.63;14.93;;;;;;;;;;5041909;28;20126;-87
2022/10/15 06:30:02;;;;;;;33.58;15.07;;;;;;;;;;5063510;28;20055;-86
2022/10/15 06:32:47;;;;;;;28.88;14.45;;;;;;;;;;5063424;28;20381;-86
2022/10/15 06:35:34;;;;;;;35.78;15.05;;;;;;;;;;5064119;28;20048;-88
2022/10/15 06:38:18;;;;;;;36.58;14.52;;;;;;;;;;5063763;28;20105;-87
2022/10/15 06:41:04;;;;;;;34.72;14.38;;;;;;;;;;5070233;28;20048;-86
2022/10/15 06:43:49;;;;;;;29.60;13.52;;;;;;;;;;5070420;28;20078;-86
2022/10/15 06:46:34;;;;;;;33.08;14.48;;;;;;;;;;5071330;28;20039;-87
2022/10/15 06:49:18;;;;;;;26.75;14.13;;;;;;;;;;5071346;28;20067;-86
2022/10/15 06:52:03;;;;;;;28.85;13.98;;;;;;;;;;5070573;28;20078;-86
2022/10/15 06:54:47;;;;;;;29.48;13.95;;;;;;;;;;5071298;28;20098;-86
2022/10/15 06:57:31;;;;;;;30.63;14.05;;;;;;;;;;5062520;28;20059;-85
2022/10/15 07:00:16;;;;;;;35.80;14.30;;;;;;;;;;5077856;28;20081;-86
2022/10/15 07:03:04;;;;;;;35.92;15.30;;;;;;;;;;5077247;28;20810;-85
2022/10/15 07:05:49;;;;;;;25.33;12.93;;;;;;;;;;5076997;28;20040;-86
2022/10/15 07:08:34;;;;;;;30.35;14.45;;;;;;;;;;5063587;28;20115;-85
2022/10/15 07:11:19;;;;;;;36.28;14.65;;;;;;;;;;5078715;28;20094;-85
2022/10/15 07:14:06;;;;;;;32.30;14.07;;;;;;;;;;5078059;28;20035;-85
2022/10/15 07:16:51;;;;;;;36.92;14.63;;;;;;;;;;5069565;28;20028;-86
2022/10/15 07:19:35;;;;;;;32.28;13.73;;;;;;;;;;5076365;28;20035;-87
2022/10/15 07:22:20;;;;;;;33.10;14.85;;;;;;;;;;5067772;28;20409;-85
2022/10/15 07:25:04;;;;;;;30.75;14.05;;;;;;;;;;5074999;28;20038;-85
2022/10/15 07:27:49;;;;;;;27.35;14.63;;;;;;;;;;5064916;28;20106;-86
2022/10/15 07:30:34;;;;;;;31.95;14.95;;;;;;;;;;5063933;28;20503;-84
2022/10/15 07:33:18;;;;;;;27.13;14.02;;;;;;;;;;5073743;28;20503;-84
2022/10/15 07:36:07;;;;;;;36.75;16.00;;;;;;;;;;5076169;28;20071;-84
2022/10/15 07:38:52;;;;;;;30.05;13.82;;;;;;;;;;5058618;28;20040;-83
2022/10/15 07:41:36;;;;;;;34.03;14.73;;;;;;;;;;5059728;28;20094;-89
2022/10/15 07:44:21;;;;;;;29.33;14.07;;;;;;;;;;5060337;28;20511;-83
2022/10/15 07:47:06;;;;;;;29.92;14.52;;;;;;;;;;5056570;28;20040;-83
2022/10/15 07:49:51;;;;;;;31.80;13.73;;;;;;;;;;5056851;28;20048;-85
2022/10/15 07:52:36;;;;;;;28.48;13.45;;;;;;;;;;5058089;28;20040;-83
2022/10/15 07:55:20;;;;;;;28.42;13.93;;;;;;;;;;5056990;28;20071;-84
2022/10/15 07:58:07;;;;;;;25.52;13.52;;;;;;;;;;5060703;28;20048;-86
2022/10/15 08:00:51;;;;;;;28.35;14.32;;;;;;;;;;5055064;28;20083;-88
2022/10/15 08:03:37;;;;;;;30.42;14.38;;;;;;;;;;5071287;28;20040;-83
2022/10/15 08:06:21;;;;;;;30.70;14.20;;;;;;;;;;5057256;28;20043;-84
2022/10/15 08:09:06;;;;;;;27.33;14.05;;;;;;;;;;5066867;28;20123;-83
2022/10/15 08:11:50;;;;;;;27.25;13.38;;;;;;;;;;5068034;28;20442;-84
2022/10/15 08:14:35;;;;;;;25.40;12.85;;;;;;;;;;5052279;28;20438;-84
2022/10/15 08:17:20;;;;;;;23.45;12.63;;;;;;;;;;5067970;28;20039;-84
2022/10/15 08:20:05;;;;;;;29.88;13.82;;;;;;;;;;5043090;28;20044;-83
2022/10/15 08:22:49;;;;;;;26.00;13.27;;;;;;;;;;5067740;28;20087;-84
2022/10/15 08:25:34;;;;;;;27.65;13.88;;;;;;;;;;5062772;28;20078;-84
2022/10/15 08:28:18;;;;;;;26.42;13.63;;;;;;;;;;5072990;28;20039;-83
2022/10/15 08:31:04;;;;;;;27.00;14.30;;;;;;;;;;5074028;28;20400;-84
2022/10/15 08:33:48;;;;;;;25.33;13.15;;;;;;;;;;5073536;28;20089;-84
2022/10/15 08:36:33;;;;;;;31.75;14.23;;;;;;;;;;5073191;28;20055;-84
2022/10/15 08:39:18;;;;;;;30.98;14.90;;;;;;;;;;5073858;28;20043;-83
2022/10/15 08:42:05;;;;;;;28.27;14.40;;;;;;;;;;5073609;28;20519;-83
2022/10/15 08:44:51;;;;;;;28.33;14.32;;;;;;;;;;5073131;28;20107;-84
2022/10/15 08:47:38;;;;;;;27.80;13.80;;;;;;;;;;5049554;28;20082;-84
2022/10/15 08:50:27;;;;;;;26.08;14.85;;;;;;;;;;5072999;28;20055;-83
2022/10/15 08:53:14;;;;;;;29.27;14.05;;;13.60;99.90;;;;;;5072611;28;20438;-83
2022/10/15 08:56:07;;;;;;;32.10;15.80;;;13.50;99.90;;;;;;5046770;28;20055;-86
2022/10/15 08:58:52;;;;;;;32.60;14.98;;;;;;;;;;5073907;28;20090;-85
2022/10/15 09:01:52;;;;;;;27.50;13.80;;;;;;;;;;5072975;28;20055;-84
2022/10/15 09:04:52;;;;;;;27.30;14.57;;;;;;;;;;5049194;28;20420;-85
2022/10/15 09:07:46;;;;;;;28.40;14.43;;;;;;;;;;5073692;28;20028;-85
2022/10/15 09:10:49;;;;;;;27.58;12.98;;;;;;;;;;5072668;28;20503;-85
2022/10/15 09:13:39;;;;;;;31.17;15.50;;;;;;;;;;5072764;28;20457;-85
2022/10/15 09:16:26;;;;;;;26.00;14.63;;;;;;;;;;5046200;28;20058;-84
2022/10/15 09:19:16;;;;;;;28.77;14.70;;;;;;;;;;5072250;28;20039;-85
2022/10/15 09:22:01;;;;;;;28.83;14.57;;;;;;;;;;5065371;28;20035;-85
2022/10/15 09:24:46;;;;;;;27.92;13.38;;;;;;;;;;5082269;28;20047;-84
2022/10/15 09:27:34;;;;;;;29.27;13.95;;;13.60;99.90;;;;;;5058742;28;20043;-86
2022/10/15 09:30:24;;;;;;;30.20;15.05;;;;;;;;;;5072713;28;20036;-84
2022/10/15 09:33:12;;;;;;;28.73;12.48;;;;;;;;;;5072597;28;20039;-83
2022/10/15 09:36:06;;;;;;;27.08;12.85;;;;;;;;;;5072423;28;20094;-84
2022/10/15 09:39:02;;;;;;;27.15;13.20;;;;;;;;;;5073041;28;20047;-85
2022/10/15 09:41:52;;;;;;;26.52;12.18;;;;;;;;;;5072191;28;20175;-84
2022/10/15 09:44:39;;;;;;;30.70;12.88;;;;;;;;;;5061475;28;20087;-84
2022/10/15 09:47:25;;;;;;;31.05;12.07;;;;;;;;;;5071165;28;20537;-84
2022/10/15 09:50:11;;;;;;;30.48;11.73;;;;;;;;;;5072310;28;20086;-84
2022/10/15 09:53:13;;;;;;;29.05;13.02;;;;;;;;;;5073090;28;20039;-85
2022/10/15 09:55:58;;;;;;;25.10;10.95;;;;;;;;;;5071703;28;20548;-84
2022/10/15 09:58:48;;;;;;;28.17;10.73;;;;;;;;;;5071619;28;20044;-84
2022/10/15 10:01:33;;;;;;;23.60;10.77;;;;;;;;;;5071675;28;20036;-83
2022/10/15 10:04:19;;;;;;;20.67;9.70;;;;;;;;;;5071915;28;20040;-85
2022/10/15 10:07:06;;;;;;;23.42;10.15;;;;;;;;;;5071826;28;20062;-84
2022/10/15 10:10:02;;;;;;;25.60;10.15;;;13.40;99.90;;;;;;5072670;28;20078;-84
2022/10/15 10:12:47;;;;;;;21.08;10.68;;;;;;;;;;5071429;28;20078;-83
2022/10/15 10:15:36;;;;;;;20.90;9.88;;;;;;;;;;5070526;28;20090;-83
2022/10/15 10:18:22;;;;;;;22.58;10.13;;;;;;;;;;5046749;28;20040;-84
2022/10/15 10:21:46;;;;;;;20.90;9.52;;;;;;;;;;5062989;28;20036;-83
2022/10/15 10:24:33;;;;;;;20.50;9.00;;;;;;;;;;5029128;28;20179;-84
2022/10/15 10:27:25;;;;;;;20.30;9.60;;;;;;;;;;5049823;28;20083;-84
2022/10/15 10:30:13;;;;;;;18.13;9.40;;;;;;;;;;5069585;28;20101;-84
2022/10/15 10:32:59;;;;;;;16.73;8.32;;;;;;;;;;5071290;28;20154;-84
2022/10/15 10:35:45;;;;;;;19.35;8.43;;;;;;;;;;5071306;28;20066;-85
2022/10/15 10:38:32;;;;;;;18.20;8.05;;;;;;;;;;5068089;28;20039;-84
2022/10/15 10:41:17;;;;;;;15.48;8.48;;;;;;;;;;5056464;28;20072;-85
2022/10/15 10:44:01;;;;;;;17.13;8.27;;;;;;;;;;5052183;28;20460;-85
2022/10/15 10:47:00;;;;;;;14.77;7.78;;;;;;;;;;5059869;28;20077;-84
2022/10/15 10:49:47;;;;;;;13.85;8.05;;;;;;;;;;5051049;28;20047;-84
2022/10/15 10:52:32;;;;;;;15.80;8.18;;;;;;;;;;5050667;28;20151;-84
2022/10/15 10:55:18;;;;;;;16.13;8.55;;;;;;;;;;5046690;28;20076;-84
2022/10/15 10:58:03;;;;;;;19.38;8.48;;;;;;;;;;5059181;28;20039;-84
2022/10/15 11:00:52;;;;;;;16.58;7.95;;;;;;;;;;5066609;28;20044;-84
2022/10/15 11:03:39;;;;;;;14.35;7.65;;;;;;;;;;5070428;28;20083;-83
2022/10/15 11:06:39;;;;;;;15.55;8.00;;;;;;;;;;5051474;28;20171;-83
2022/10/15 11:09:52;;;;;;;16.38;7.65;;;15.10;99.90;;;;;;5050200;28;20036;-84
2022/10/15 11:12:43;;;;;;;13.90;7.22;;;;;;;;;;5050206;28;20129;-84
2022/10/15 11:15:44;;;;;;;15.95;8.05;;;15.00;99.90;;;;;;5051491;28;20056;-84
2022/10/15 11:18:32;;;;;;;15.05;7.88;;;;;;;;;;5050376;28;20500;-84
2022/10/15 11:21:23;;;;;;;14.23;7.80;;;;;;;;;;5051489;28;20046;-84
2022/10/15 11:24:11;;;;;;;12.30;6.93;;;;;;;;;;5061947;28;20048;-85
2022/10/15 11:27:44;;;;;;;14.98;7.90;;;14.80;99.90;;;;;;5070646;28;20069;-84
2022/10/15 11:30:36;;;;;;;14.88;7.43;;;;;;;;;;5068370;28;20035;-84
2022/10/15 11:33:26;;;;;;;15.00;6.85;;;;;;;;;;5071388;28;20067;-85
2022/10/15 11:36:32;;;;;;;14.02;7.10;;;;;;;;;;5071811;28;20071;-85
2022/10/15 11:39:20;;;;;;;17.27;7.40;;;;;;;;;;5062162;28;20064;-84
2022/10/15 11:42:07;;;;;;;15.20;7.82;;;;;;;;;;5051672;28;20087;-85
2022/10/15 11:45:07;;;;;;;13.55;7.38;;;;;;;;;;5062662;28;20086;-84
2022/10/15 11:47:51;;;;;;;16.65;7.00;;;;;;;;;;5061229;28;20036;-87
2022/10/15 11:50:42;;;;;;;15.00;6.68;;;;;;;;;;5061790;28;20082;-84
2022/10/15 11:53:36;;;;;;;12.95;7.40;;;;;;;;;;5057720;28;20448;-86
2022/10/15 11:56:25;;;;;;;13.35;6.50;;;;;;;;;;5041270;28;20109;-85
2022/10/15 11:59:10;;;;;;;11.57;5.93;;;;;;;;;;5054878;28;20040;-84
2022/10/15 12:02:01;;;;;;;12.90;7.30;;;14.90;99.90;;;;;;5054242;28;20090;-85
2022/10/15 12:05:37;;;;;;;13.00;7.05;;;15.00;99.90;;;;;;5053501;28;20048;-84
2022/10/15 12:08:23;;;;;;;12.88;6.50;;;;;;;;;;5018663;28;20033;-85
2022/10/15 12:11:11;;;;;;;11.07;7.13;;;;;;;;;;5054051;28;20035;-85
2022/10/15 12:14:00;;;;;;;11.68;6.13;;;;;;;;;;5049155;28;20068;-86
2022/10/15 12:16:50;;;;;;;13.07;7.72;;;;;;;;;;5054008;28;20508;-84
2022/10/15 12:19:38;;;;;;;13.82;7.57;;;;;;;;;;5054091;28;20055;-85
2022/10/15 12:22:38;;;;;;;12.38;7.43;;;;;;;;;;5047524;28;20039;-85
2022/10/15 12:25:35;;;;;;;14.57;7.00;;;;;;;;;;5061365;28;20517;-84
2022/10/15 12:28:22;;;;;;;12.07;6.05;;;;;;;;;;5073585;28;20040;-85
2022/10/15 12:31:06;;;;;;;14.27;6.95;;;;;;;;;;5074548;28;20090;-85
2022/10/15 12:33:52;;;;;;;14.88;7.45;;;;;;;;;;5045968;28;20105;-85
2022/10/15 12:36:37;;;;;;;16.23;7.43;;;;;;;;;;5074324;28;20043;-86
2022/10/15 12:39:23;;;;;;;14.80;7.35;;;;;;;;;;5073965;28;20461;-85
2022/10/15 12:42:19;;;;;;;12.65;6.65;;;;;;;;;;5059362;28;20031;-85
2022/10/15 12:45:17;;;;;;;14.57;6.60;;;;;;;;;;5074492;28;20465;-86
2022/10/15 12:48:05;;;;;;;13.05;7.93;;;;;;;;;;5074565;28;20397;-84
2022/10/15 12:50:49;;;;;;;23.23;7.15;;;;;;;;;;5073134;28;20055;-86
2022/10/15 12:53:41;;;;;;;11.55;6.30;;;;;;;;;;5072405;28;20044;-85
2022/10/15 12:56:39;;;;;;;14.27;7.82;;;;;;;;;;5074500;28;20094;-85
2022/10/15 12:59:43;;;;;;;13.73;7.13;;;15.70;99.90;;;;;;5074429;28;20075;-85
2022/10/15 13:02:39;;;;;;;11.85;6.05;;;;;;;;;;5071858;28;20041;-86
2022/10/15 13:05:27;;;;;;;12.43;6.35;;;;;;;;;;5073330;28;20047;-85
2022/10/15 13:08:13;;;;;;;14.10;7.82;;;;;;;;;;5042281;28;20072;-85
2022/10/15 13:11:00;;;;;;;13.50;7.00;;;;;;;;;;5071656;28;20074;-85
2022/10/15 13:13:45;;;;;;;15.13;7.63;;;;;;;;;;5073851;28;20055;-85
2022/10/15 13:16:30;;;;;;;14.68;7.50;;;;;;;;;;5074045;28;20059;-85
2022/10/15 13:19:22;;;;;;;12.85;6.95;;;;;;;;;;5073872;28;20038;-85
2022/10/15 13:22:23;;;;;;;16.73;7.95;;;15.10;99.90;;;;;;5066132;28;20040;-84
2022/10/15 13:25:17;;;;;;;15.55;7.60;;;;;;;;;;5072155;28;20396;-85
2022/10/15 13:28:02;;;;;;;11.02;5.75;;;;;;;;;;5074929;28;20035;-84
2022/10/15 13:30:49;;;;;;;10.88;6.32;;;;;;;;;;5072324;28;20055;-85
2022/10/15 13:33:39;;;;;;;14.15;6.65;;;;;;;;;;5073700;28;20034;-85
2022/10/15 13:36:29;;;;;;;11.48;5.97;;;;;;;;;;5072804;28;20123;-85
2022/10/15 13:39:32;;;;;;;11.23;6.28;;;;;;;;;;5072610;28;20150;-86
2022/10/15 13:42:21;;;;;;;15.60;6.82;;;;;;;;;;5072415;28;20389;-86
2022/10/15 13:45:17;;;;;;;11.75;6.15;;;;;;;;;;5072190;28;20403;-86
2022/10/15 13:48:02;;;;;;;9.43;4.88;;;;;;;;;;5071893;28;20508;-85
2022/10/15 13:50:47;;;;;;;9.93;6.20;;;;;;;;;;5071930;28;20060;-85
2022/10/15 13:53:32;;;;;;;10.18;4.80;;;;;;;;;;5072375;28;20041;-86
2022/10/15 13:56:25;;;;;;;13.23;5.40;;;;;;;;;;5072250;28;20129;-85
2022/10/15 13:59:16;;;;;;;9.98;5.15;;;;;;;;;;5072089;28;20028;-86
2022/10/15 14:02:03;;;;;;;10.43;5.32;;;;;;;;;;5071579;28;20436;-88
2022/10/15 14:04:50;;;;;;;9.90;5.13;;;;;;;;;;5071636;28;20424;-86
2022/10/15 14:07:35;;;;;;;8.90;4.93;;;;;;;;;;5071487;28;20082;-86
2022/10/15 14:10:22;;;;;;;8.00;4.43;;;;;;;;;;5073109;28;20154;-86
2022/10/15 14:13:08;;;;;;;10.45;4.63;;;;;;;;;;5058323;28;20166;-86
2022/10/15 14:15:57;;;;;;;7.85;4.18;;;;;;;;;;5071292;28;20040;-86
2022/10/15 14:18:43;;;;;;;8.07;4.70;;;;;;;;;;5072926;28;20496;-86
2022/10/15 14:21:31;;;;;;;7.10;4.30;;;;;;;;;;5070499;28;20031;-86
2022/10/15 14:24:20;;;;;;;9.40;5.05;;;;;;;;;;5076743;28;20075;-86
2022/10/15 14:27:06;;;;;;;7.20;4.10;;;;;;;;;;5071346;28;20086;-85
2022/10/15 14:29:58;;;;;;;8.82;4.10;;;;;;;;;;5071209;28;20505;-85
2022/10/15 14:32:48;;;;;;;5.82;3.38;;;;;;;;;;5072751;28;20578;-86
2022/10/15 14:35:36;;;;;;;5.90;3.80;;;;;;;;;;5072646;28;20400;-85
2022/10/15 14:38:25;;;;;;;8.38;4.03;;;;;;;;;;5072409;28;20086;-85
2022/10/15 14:41:24;;;;;;;6.22;3.80;;;;;;;;;;5071336;28;20050;-85
2022/10/15 14:44:09;;;;;;;6.63;3.55;;;;;;;;;;5071952;28;20039;-85
2022/10/15 14:47:00;;;;;;;5.50;3.33;;;;;;;;;;5071900;28;20107;-86
2022/10/15 14:49:45;;;;;;;7.47;3.70;;;;;;;;;;5072620;28;20110;-85
2022/10/15 14:52:30;;;;;;;6.70;4.28;;;;;;;;;;5071294;28;20507;-86
2022/10/15 14:55:24;;;;;;;5.28;3.53;;;;;;;;;;5071257;28;20060;-85
2022/10/15 14:58:11;;;;;;;5.70;3.40;;;;;;;;;;5072022;28;20531;-86
2022/10/15 15:00:57;;;;;;;5.65;3.42;;;;;;;;;;5071859;28;20075;-86
2022/10/15 15:03:43;;;;;;;5.70;2.75;;;;;;;;;;5072341;28;20039;-85
2022/10/15 15:06:28;;;;;;;4.25;2.67;;;;;;;;;;5071270;28;20047;-86
2022/10/15 15:09:12;;;;;;;4.68;2.72;;;;;;;;;;5070770;28;20028;-85
2022/10/15 15:11:57;;;;;;;6.40;3.03;;;;;;;;;;5072005;28;20037;-85
2022/10/15 15:14:42;;;;;;;5.53;2.72;;;;;;;;;;5071366;28;20516;-85
2022/10/15 15:17:27;;;;;;;6.03;3.10;;;;;;;;;;5072502;28;20083;-85
2022/10/15 15:20:12;;;;;;;5.88;2.85;;;;;;;;;;5074849;28;20045;-87
2022/10/15 15:22:56;;;;;;;4.63;2.80;;;;;;;;;;5060437;28;20508;-85
2022/10/15 15:25:41;;;;;;;4.70;2.67;;;;;;;;;;5061368;28;20050;-85
2022/10/15 15:28:26;;;;;;;4.43;2.33;;;;;;;;;;5074912;28;20039;-85
2022/10/15 15:31:16;;;;;;;4.35;2.45;;;;;;;;;;5074651;28;20040;-85
2022/10/15 15:34:01;;;;;;;3.83;2.33;;;;;;;;;;5074543;28;20059;-86
2022/10/15 15:36:46;;;;;;;3.78;2.63;;;;;;;;;;5060834;28;20047;-85
2022/10/15 15:39:30;;;;;;;4.22;2.60;;;;;;;;;;5076149;28;20070;-84
2022/10/15 15:42:16;;;;;;;3.85;2.30;;;;;;;;;;5060165;28;20040;-85
2022/10/15 15:45:01;;;;;;;4.70;2.55;;;;;;;;;;5074098;28;20058;-85
2022/10/15 15:47:45;;;;;;;6.95;2.60;;;;;;;;;;5074722;28;20090;-84
2022/10/15 15:50:30;;;;;;;4.18;2.60;;;;;;;;;;5074527;28;20082;-85
2022/10/15 15:53:15;;;;;;;4.93;2.95;;;;;;;;;;5075208;28;20056;-85
2022/10/15 15:56:00;;;;;;;4.82;2.70;;;;;;;;;;5074127;28;20056;-85
2022/10/15 15:58:44;;;;;;;6.07;2.88;;;;;;;;;;5075345;28;20039;-85
2022/10/15 16:01:29;;;;;;;4.15;2.38;;;;;;;;;;5075615;28;20075;-85
2022/10/15 16:04:14;;;;;;;4.72;2.75;;;;;;;;;;5073921;28;20456;-85
2022/10/15 16:06:59;;;;;;;4.80;2.35;;;;;;;;;;5074049;28;20083;-85
2022/10/15 16:09:43;;;;;;;5.65;3.08;;;;;;;;;;5075308;28;20082;-85
2022/10/15 16:12:28;;;;;;;5.18;3.10;;;;;;;;;;5074199;28;20078;-85
2022/10/15 16:15:12;;;;;;;5.85;3.00;;;;;;;;;;5073810;28;20047;-84